Time;durP1;ratioP1;P1;durP2;ratioP2;P2;SDS_P1;SDS_P2;PMS_P1;PMS_P2;Temp;Humidity;BMP_temperature;BMP_pressure;BME280_temperature;BME280_humidity;BME280_pressure;Samples;Min_cycle;Max_cycle;Signal;HPM_P1;HPM_P2
2023/03/27 00:01:14;;;;;;;7.45;6.63;;;;;;;6.29;89.60;148886.25;4977360;28;20203;-65
2023/03/27 00:03:39;;;;;;;7.47;6.70;;;;;;;6.52;89.87;148942.50;4979281;28;20041;-66
2023/03/27 00:06:08;;;;;;;9.10;6.80;;;;;;;6.47;89.14;148929.69;4967810;28;20491;-66
2023/03/27 00:08:35;;;;;;;7.60;6.90;;;;;;;6.47;89.63;148931.00;4985671;28;20073;-66
2023/03/27 00:11:01;;;;;;;7.40;6.63;;;;;;;6.44;89.14;148923.34;4968046;28;20043;-66
2023/03/27 00:13:28;;;;;;;7.32;6.47;;;;;;;6.46;89.40;148927.16;4978520;28;20085;-66
2023/03/27 00:15:58;;;;;;;7.60;6.80;;;;;;;6.35;89.43;148901.56;4976171;28;20043;-64
2023/03/27 00:18:26;;;;;;;7.20;6.50;;;;;;;6.41;89.23;148914.38;4965197;28;20379;-64
2023/03/27 00:20:53;;;;;;;7.68;6.85;;;;;;;6.31;88.98;148890.09;4964917;28;20031;-65
2023/03/27 00:23:19;;;;;;;6.88;6.15;;;;;;;6.28;88.87;148883.69;4984701;28;20366;-65
2023/03/27 00:25:48;;;;;;;7.32;6.63;;;;;;;6.17;88.66;148855.56;4999713;28;20034;-65
2023/03/27 00:28:15;;;;;;;7.45;6.68;;;;;;;6.32;89.60;148893.91;4985193;28;20177;-65
2023/03/27 00:30:41;;;;;;;8.82;7.13;;;;;;;6.32;88.89;148893.91;4986328;28;20039;-65
2023/03/27 00:33:09;;;;;;;7.80;7.00;;;;;;;6.14;88.79;148847.91;5002472;28;20057;-64
2023/03/27 00:35:35;;;;;;;7.82;7.07;;;;;;;6.20;88.79;148864.53;4965044;29;20031;-65
2023/03/27 00:38:04;;;;;;;8.93;8.02;;;;;;;6.31;88.93;148891.34;4981629;28;20073;-64
2023/03/27 00:40:31;;;;;;;8.93;7.40;;;;;;;6.24;88.65;148873.44;4985064;28;20031;-65
2023/03/27 00:42:57;;;;;;;8.55;7.70;;;;;;;6.21;88.94;148865.78;4976299;28;20030;-67
2023/03/27 00:45:29;;;;;;;9.93;7.97;;;;;;;6.08;89.38;148833.84;4969040;28;20026;-64
2023/03/27 00:48:00;;;;;;;9.48;8.10;;;;;;;6.05;88.86;148827.44;4984592;28;20035;-64
2023/03/27 00:50:35;;;;;;;8.68;7.82;;;;;;;6.18;88.81;148859.41;4965721;28;20085;-65
2023/03/27 00:53:07;;;;;;;10.15;8.95;;;;;;;6.09;88.88;148836.41;4982252;28;20319;-65
2023/03/27 00:55:37;;;;;;;9.52;8.52;;;;;;;5.93;89.58;148796.75;4971031;28;20039;-66
2023/03/27 00:58:08;;;;;;;9.95;8.95;;;;;;;5.94;89.98;148799.28;4964899;28;20035;-66
2023/03/27 01:00:35;;;;;;;12.05;10.10;;;;;;;6.09;89.51;148835.16;4964631;29;20031;-65
2023/03/27 01:03:05;;;;;;;11.82;10.00;;;;;;;5.92;89.75;148794.19;4964163;28;20285;-67
2023/03/27 01:05:32;;;;;;;11.55;10.30;;;;;;;6.04;90.09;148823.63;4964151;28;20088;-66
2023/03/27 01:07:59;;;;;;;12.88;11.20;;;;;;;6.13;89.47;148845.34;4964265;28;20058;-66
2023/03/27 01:10:38;;;;;;;12.27;10.65;;;;;;;6.14;90.40;148847.91;4976266;28;20089;-65
2023/03/27 01:13:12;;;;;;;13.02;11.25;;;;;;;6.20;89.75;148864.53;4974475;28;20034;-65
2023/03/27 01:16:18;;;;;;;14.20;11.50;;;;;;;6.21;89.79;148865.78;4965148;28;20039;-66
2023/03/27 01:19:29;;;;;;;13.27;10.80;;;;;;;6.17;89.77;148855.56;4969709;28;20057;-66
2023/03/27 01:22:22;;;;;;;14.55;11.82;;;;;;;6.02;90.01;148819.78;4981979;28;20056;-65
2023/03/27 01:25:32;;;;;;;16.20;13.00;;;;;;;5.97;90.54;148807.03;4974387;28;20102;-66
2023/03/27 01:28:23;;;;;;;15.73;12.85;;;;;;;5.98;90.35;148808.28;4970781;28;20043;-66
2023/03/27 01:31:03;;;;;;;14.70;11.90;;;;;;;5.96;89.92;148804.41;4983975;28;20053;-66
2023/03/27 01:33:35;;;;;;;15.88;12.30;;;;;;;5.96;90.38;148803.16;4996592;28;20038;-67
2023/03/27 01:36:38;;;;;;;15.00;11.95;;;;;;;6.01;89.50;148815.97;4981109;28;20210;-64
2023/03/27 01:39:07;;;;;;;13.30;10.63;;;;;;;5.96;90.30;148803.16;4963284;28;20065;-65
2023/03/27 01:41:48;;;;;;;12.90;10.75;;;;;;;5.86;90.36;148780.13;4981998;28;20030;-66
2023/03/27 01:44:24;;;;;;;11.43;10.13;;;;;;;5.78;89.75;148758.44;4981367;28;20727;-65
2023/03/27 01:46:59;;;;;;;13.68;9.63;;;;;;;5.82;89.78;148768.66;4965426;28;20335;-64
2023/03/27 01:49:33;;;;;;;12.05;9.65;;;;;;;5.59;90.47;148711.19;4969337;28;20043;-65
2023/03/27 01:52:07;;;;;;;11.50;9.88;;;;;;;5.87;90.61;148781.41;4980539;28;20101;-66
2023/03/27 01:54:40;;;;;;;12.77;11.10;;;;;;;5.80;89.90;148764.81;4968349;28;20054;-65
2023/03/27 01:57:14;;;;;;;13.07;9.95;;;;;;;5.96;89.99;148803.16;4982565;28;20097;-66
2023/03/27 01:59:45;;;;;;;11.63;10.10;;;;;;;6.01;89.49;148817.25;4983871;28;20027;-65
2023/03/27 02:02:31;;;;;;;11.52;10.32;;;;;;;5.82;90.01;148768.66;4980732;28;20050;-66
2023/03/27 02:05:23;;;;;;;13.85;10.20;;;;;;;6.00;89.01;148814.69;4979808;28;20030;-67
2023/03/27 02:07:56;;;;;;;12.32;10.80;;;;;;;5.99;88.97;148812.13;4968702;28;20362;-66
2023/03/27 02:10:31;;;;;;;12.55;10.30;;;;;;;5.86;89.43;148778.88;4975247;28;20109;-66
2023/03/27 02:13:06;;;;;;;12.55;10.57;;;;;;;5.79;90.16;148761.00;4983291;28;20030;-66
2023/03/27 02:15:34;;;;;;;12.90;10.60;;;;;;;5.97;89.45;148805.69;4978779;28;20343;-65
2023/03/27 02:18:08;;;;;;;14.32;11.23;;;;;;;5.90;89.38;148789.09;4964025;28;20031;-66
2023/03/27 02:20:37;;;;;;;13.30;10.88;;;;;;;5.79;89.76;148762.25;4983717;28;20069;-65
2023/03/27 02:23:03;;;;;;;16.60;11.50;;;;;;;5.95;89.46;148801.84;4966780;28;20065;-64
2023/03/27 02:25:38;;;;;;;12.10;10.80;;;;;;;6.01;89.84;148817.25;4975432;28;20034;-65
2023/03/27 02:28:26;;;;;;;12.50;11.20;;;;;;;6.07;89.73;148831.31;4974644;28;20039;-65
2023/03/27 02:31:05;;;;;;;14.18;10.82;;;;;;;6.06;89.64;148828.75;4991503;28;20050;-65
2023/03/27 02:34:08;;;;;;;12.60;10.55;;;;;;;6.08;88.75;148832.59;4998295;28;20038;-65
2023/03/27 02:36:48;;;;;;;12.75;11.43;;;;;;;5.85;89.30;148776.31;4983280;28;20041;-65
2023/03/27 02:39:30;;;;;;;13.32;11.93;;;;;;;5.87;89.67;148781.41;4981450;28;20054;-67
2023/03/27 02:42:13;;;;;;;14.13;11.93;;;;;;;5.88;89.88;148785.22;4998359;28;20049;-66
2023/03/27 02:44:53;;;;;;;12.95;11.32;;;;;;;5.97;89.53;148807.03;4962147;29;20394;-65
2023/03/27 02:47:29;;;;;;;13.60;12.10;;;;;;;5.97;89.77;148807.03;4982141;28;20077;-65
2023/03/27 02:50:05;;;;;;;15.07;12.75;;;;;;;5.91;89.53;148790.38;4978616;28;20038;-65
2023/03/27 02:52:38;;;;;;;13.63;12.23;;;;;;;5.90;89.90;148787.78;4975538;28;20046;-66
2023/03/27 02:55:11;;;;;;;14.55;11.80;;;;;;;5.77;89.31;148755.84;4974081;28;20061;-65
2023/03/27 02:57:38;;;;;;;15.57;12.15;;;;;;;5.87;89.03;148781.41;4981593;28;20034;-66
2023/03/27 03:00:19;;;;;;;14.00;12.23;;;;;;;5.95;89.37;148800.59;4982636;28;20046;-65
2023/03/27 03:02:47;;;;;;;12.80;11.17;;;;;;;5.99;89.21;148812.13;4963707;28;20284;-64
2023/03/27 03:05:19;;;;;;;13.65;11.40;;;;;;;6.05;88.57;148826.19;4980595;28;20395;-65
2023/03/27 03:07:46;;;;;;;16.45;11.70;;;;;;;6.10;88.63;148838.97;4968997;28;20057;-66
2023/03/27 03:10:12;;;;;;;14.35;10.93;;;;;;;6.09;88.66;148835.16;4972747;28;20364;-66
2023/03/27 03:12:38;;;;;;;15.65;12.52;;;;;;;6.04;89.12;148824.94;4982577;28;20034;-66
2023/03/27 03:15:06;;;;;;;15.48;13.23;;;;;;;6.02;88.76;148818.53;4985351;28;20053;-65
2023/03/27 03:17:33;;;;;;;17.90;14.40;;;;;;;5.84;90.09;148773.75;4966880;28;20146;-66
2023/03/27 03:19:59;;;;;;;16.27;13.73;;;;;;;5.76;90.00;148753.28;4982156;28;20050;-65
2023/03/27 03:22:25;;;;;;;19.65;14.00;;;;;;;5.81;89.81;148766.09;4986612;28;20345;-66
2023/03/27 03:24:50;;;;;;;18.15;14.25;;;;;;;5.89;89.59;148786.53;4979915;28;20043;-66
2023/03/27 03:27:19;;;;;;;16.38;12.95;;;;;;;5.90;90.02;148789.09;4968505;28;20110;-66
2023/03/27 03:29:45;;;;;;;18.48;14.23;;;;;;;5.68;89.65;148734.16;4985989;28;20110;-66
2023/03/27 03:32:11;;;;;;;22.65;16.70;;;;;;;5.66;90.90;148729.06;4998729;28;20042;-66
2023/03/27 03:34:40;;;;;;;20.60;15.90;;;;;;;5.74;90.22;148748.19;4992826;28;20565;-66
2023/03/27 03:37:09;;;;;;;20.38;16.25;;;;;;;5.67;90.67;148731.56;4986181;28;20106;-66
2023/03/27 03:39:35;;;;;;;19.80;15.13;;;;;;;5.71;90.28;148741.81;4981454;28;20098;-66
2023/03/27 03:42:01;;;;;;;22.02;15.55;;;;;;;5.65;90.67;148727.75;4965375;28;20835;-67
2023/03/27 03:44:27;;;;;;;18.63;14.65;;;;;;;5.69;90.54;148736.72;4984952;28;20033;-65
2023/03/27 03:46:52;;;;;;;19.48;15.45;;;;;;;5.82;89.66;148768.66;4970829;28;20027;-65
2023/03/27 03:49:18;;;;;;;18.83;14.88;;;;;;;5.84;89.45;148773.75;4975591;28;20038;-65
2023/03/27 03:51:43;;;;;;;17.23;14.02;;;;;;;5.82;89.60;148769.91;4980731;28;20030;-65
2023/03/27 03:54:09;;;;;;;19.30;14.48;;;;;;;5.85;89.83;148776.31;4966885;28;20027;-65
2023/03/27 03:56:36;;;;;;;19.10;14.43;;;;;;;5.92;89.58;148792.94;4985457;28;20030;-64
2023/03/27 03:59:01;;;;;;;18.50;14.85;;;;;;;6.00;88.65;148814.69;4970314;28;20453;-65
2023/03/27 04:01:27;;;;;;;19.67;15.48;;;;;;;6.08;89.10;148833.84;4965881;28;20042;-67
2023/03/27 04:03:53;;;;;;;18.83;14.60;;;;;;;6.01;89.27;148817.25;4972485;28;20256;-66
2023/03/27 04:06:24;;;;;;;18.65;15.45;;;;;;;6.02;88.95;148818.53;4983959;28;20323;-65
2023/03/27 04:08:51;;;;;;;17.50;15.02;;;;;;;6.13;89.07;148846.63;4965834;28;20061;-67
2023/03/27 04:11:17;;;;;;;18.25;15.23;;;;;;;6.06;88.90;148828.75;4983010;28;20126;-66
2023/03/27 04:13:42;;;;;;;19.88;15.90;;;;;;;5.99;89.27;148812.13;4972642;28;20027;-66
2023/03/27 04:16:08;;;;;;;20.38;16.95;;;;;;;5.79;89.07;148761.00;4965016;28;20185;-68
2023/03/27 04:18:36;;;;;;;20.38;16.42;;;;;;;5.66;89.26;148729.06;4969561;28;20039;-67
2023/03/27 04:21:02;;;;;;;22.10;17.35;;;;;;;5.65;90.18;148726.50;4985117;28;20118;-67
2023/03/27 04:23:30;;;;;;;21.05;17.00;;;;;;;5.69;89.97;148737.97;4965941;28;20106;-67
2023/03/27 04:25:58;;;;;;;20.33;16.08;;;;;;;5.82;89.96;148769.91;4979842;28;20119;-66
2023/03/27 04:28:33;;;;;;;20.88;17.25;;;;;;;5.83;88.98;148771.22;4974804;28;20094;-67
2023/03/27 04:31:05;;;;;;;21.15;17.15;;;;;;;5.81;89.60;148766.09;4979905;28;20047;-67
2023/03/27 04:33:33;;;;;;;22.83;17.88;;;;;;;5.84;89.47;148773.75;5001067;28;20040;-67
2023/03/27 04:36:00;;;;;;;24.48;17.75;;;;;;;6.00;89.29;148814.69;4984901;28;20311;-66
2023/03/27 04:38:30;;;;;;;21.45;17.27;;;;;;;5.96;89.26;148803.16;4966393;28;20039;-67
2023/03/27 04:40:56;;;;;;;21.25;16.73;;;;;;;6.10;89.18;148837.66;4979655;28;20138;-67
2023/03/27 04:43:24;;;;;;;22.60;17.08;;;;;;;6.08;88.53;148832.59;4974896;28;20046;-66
2023/03/27 04:45:52;;;;;;;21.92;17.27;;;;;;;6.00;89.14;148814.69;4970264;28;20351;-66
2023/03/27 04:48:18;;;;;;;26.23;18.05;;;;;;;6.08;89.13;148833.84;4983782;28;20230;-66
2023/03/27 04:50:48;;;;;;;23.55;17.55;;;;;;;5.96;88.88;148804.41;4979404;28;20457;-67
2023/03/27 04:53:19;;;;;;;21.98;16.58;;;;;;;6.06;88.47;148828.75;4964290;28;20311;-68
2023/03/27 04:55:46;;;;;;;19.83;15.87;;;;;;;6.16;88.67;148854.31;4976920;28;20058;-66
2023/03/27 04:58:12;;;;;;;25.10;16.92;;;;;;;6.17;89.06;148855.56;4975047;28;20054;-65
2023/03/27 05:00:39;;;;;;;20.70;16.25;;;;;;;6.29;88.78;148886.25;4968651;28;20034;-66
2023/03/27 05:03:05;;;;;;;22.45;16.92;;;;;;;6.37;87.83;148905.41;4984521;28;20031;-66
2023/03/27 05:05:30;;;;;;;21.63;16.40;;;;;;;6.49;87.58;148936.09;4964948;28;20035;-67
2023/03/27 05:07:56;;;;;;;23.80;17.15;;;;;;;6.41;88.03;148914.38;4979110;28;20038;-66
2023/03/27 05:10:22;;;;;;;26.00;18.30;;;;;;;6.47;87.40;148929.69;4974619;28;20034;-67
2023/03/27 05:12:50;;;;;;;25.65;17.80;;;;;;;6.48;87.42;148932.25;4971559;28;20038;-66
2023/03/27 05:15:17;;;;;;;25.95;19.05;;;;;;;6.38;87.90;148909.28;5002924;28;20022;-67
2023/03/27 05:17:45;;;;;;;28.08;19.25;;;;;;;6.21;87.50;148867.09;4987607;28;20357;-67
2023/03/27 05:20:14;;;;;;;28.42;20.52;;;;;;;6.29;87.56;148886.25;5002784;28;20036;-67
2023/03/27 05:22:41;;;;;;;29.17;19.88;;;;;;;6.23;87.43;148870.94;4986836;28;20027;-67
2023/03/27 05:25:07;;;;;;;29.98;19.83;;;;;;;6.24;87.64;148872.19;4991713;28;20411;-66
2023/03/27 05:27:33;;;;;;;31.65;20.60;;;;;;;6.22;88.15;148869.63;4967163;28;20115;-65
2023/03/27 05:29:59;;;;;;;28.23;19.27;;;;;;;6.24;87.79;148873.44;4983571;28;20023;-66
2023/03/27 05:32:25;;;;;;;30.90;19.98;;;;;;;5.98;88.01;148809.56;4998817;28;20114;-66
2023/03/27 05:34:53;;;;;;;28.60;19.90;;;;;;;6.26;88.50;148878.59;4989060;28;20234;-66
2023/03/27 05:37:22;;;;;;;27.52;19.45;;;;;;;6.21;87.96;148865.78;4983124;28;20102;-66
2023/03/27 05:39:47;;;;;;;29.25;20.40;;;;;;;6.19;88.46;148861.97;4979055;28;20098;-66
2023/03/27 05:42:14;;;;;;;25.48;18.13;;;;;;;6.31;88.65;148891.34;4964290;28;20027;-66
2023/03/27 05:44:42;;;;;;;26.13;17.42;;;;;;;6.20;88.21;148863.28;4964616;29;20070;-67
2023/03/27 05:47:09;;;;;;;24.42;16.98;;;;;;;6.02;88.49;148819.78;4979570;28;20207;-66
2023/03/27 05:49:35;;;;;;;25.95;17.52;;;;;;;6.16;88.49;148854.31;4972909;28;20089;-66
2023/03/27 05:52:02;;;;;;;23.17;16.15;;;;;;;6.06;88.63;148828.75;4970418;28;20234;-67
2023/03/27 05:54:28;;;;;;;22.52;16.00;;;;;;;6.18;88.49;148858.13;4981661;28;20026;-66
2023/03/27 05:56:53;;;;;;;22.20;16.02;;;;;;;6.24;88.07;148873.44;4964146;28;20031;-66
2023/03/27 05:59:19;;;;;;;24.85;17.23;;;;;;;6.25;88.66;148876.03;4980697;28;20030;-66
2023/03/27 06:01:45;;;;;;;22.45;15.93;;;;;;;6.33;89.02;148895.22;4969997;28;20051;-66
2023/03/27 06:04:11;;;;;;;25.27;17.58;;;;;;;6.13;88.89;148846.63;4964116;28;20027;-66
2023/03/27 06:06:37;;;;;;;26.60;17.85;;;;;;;6.14;89.48;148847.91;4964182;28;20096;-66
2023/03/27 06:09:03;;;;;;;29.02;18.25;;;;;;;6.16;89.02;148853.03;4963983;28;20031;-67
2023/03/27 06:11:30;;;;;;;26.90;17.33;;;;;;;6.26;90.58;148877.34;4963718;28;20024;-66
2023/03/27 06:13:56;;;;;;;25.40;18.33;;;;;;;6.32;90.36;148893.91;4977403;28;20090;-67
2023/03/27 06:16:21;;;;;;;29.17;19.40;;;;;;;6.18;89.67;148858.13;4974317;28;20224;-67
2023/03/27 06:18:47;;;;;;;26.98;17.73;;;;;;;6.09;90.01;148835.16;4967950;28;20066;-66
2023/03/27 06:21:13;;;;;;;28.92;19.17;;;;;;;6.13;90.41;148845.34;4983016;28;20023;-66
2023/03/27 06:23:39;;;;;;;27.48;17.75;;;;;;;6.21;90.73;148867.09;4981432;28;20072;-67
2023/03/27 06:26:04;;;;;;;24.42;17.60;;;;;;;6.22;89.40;148869.63;4983235;28;20034;-66
2023/03/27 06:28:30;;;;;;;24.75;16.83;;;;;;;6.18;90.04;148858.13;4982941;28;20070;-66
2023/03/27 06:30:59;;;;;;;26.08;17.08;;;;;;;5.96;90.44;148803.16;4985675;28;20125;-67
2023/03/27 06:33:26;;;;;;;24.00;16.58;;;;;;;5.96;90.75;148803.16;4999519;28;20331;-66
2023/03/27 06:35:58;;;;;;;25.33;15.80;;;;;;;5.91;90.07;148791.63;4983122;28;20514;-67
2023/03/27 06:38:26;;;;;;;20.88;15.75;;;;;;;6.02;90.64;148819.78;4965929;28;20027;-67
2023/03/27 06:40:52;;;;;;;23.63;16.45;;;;;;;5.98;90.16;148809.56;4976172;28;20069;-67
2023/03/27 06:43:21;;;;;;;23.60;15.57;;;;;;;5.92;89.97;148792.94;4981601;28;20018;-66
2023/03/27 06:45:48;;;;;;;24.08;16.08;;;;;;;6.16;90.30;148854.31;4982967;28;20026;-66
2023/03/27 06:48:15;;;;;;;21.17;15.02;;;;;;;6.29;90.32;148886.25;4984622;28;20026;-66
2023/03/27 06:50:41;;;;;;;27.65;16.25;;;;;;;6.29;90.07;148886.25;4967795;28;20035;-67
2023/03/27 06:53:07;;;;;;;21.92;15.05;;;;;;;6.27;90.18;148879.84;4966575;28;20535;-67
2023/03/27 06:55:33;;;;;;;24.65;15.55;;;;;;;6.37;90.09;148905.41;4976977;28;20030;-67
2023/03/27 06:58:00;;;;;;;21.95;14.95;;;;;;;6.33;90.63;148895.22;4980485;28;20031;-65
2023/03/27 07:00:33;;;;;;;21.17;15.63;;;;;;;6.27;90.66;148879.84;4968558;28;20038;-65
2023/03/27 07:03:07;;;;;;;20.63;14.63;;;;;;;6.37;89.93;148906.72;4986015;28;20038;-66
2023/03/27 07:05:37;;;;;;;23.35;15.80;;;;;;;6.51;90.07;148941.22;4986241;28;20367;-67
2023/03/27 07:08:09;;;;;;;23.80;16.70;;;;;;;6.31;90.92;148890.09;4972425;28;20035;-66
2023/03/27 07:10:35;;;;;;;;;;;;;;;6.35;91.02;148900.31;4977888;28;20037;-66
2023/03/27 07:13:01;;;;;;;25.88;16.85;;;;;;;6.35;91.64;148901.56;4980098;28;19941;-67
2023/03/27 07:15:26;;;;;;;21.83;15.15;;;;;;;6.05;92.53;148826.19;4966552;28;20085;-67
2023/03/27 07:17:53;;;;;;;24.95;16.85;;;;;;;5.89;93.68;148786.53;4967067;28;20027;-66
2023/03/27 07:20:19;;;;;;;21.20;15.50;;;;;;;5.94;93.67;148798.03;4982951;28;20105;-66
2023/03/27 07:22:44;;;;;;;23.08;15.65;;;;;;;6.22;93.53;148869.63;4974606;28;20027;-66
2023/03/27 07:25:11;;;;;;;22.30;16.48;;;;;;;6.41;94.04;148915.63;4973474;28;20082;-66
2023/03/27 07:27:38;;;;;;;21.55;15.73;;;;;;;6.56;93.64;148954.00;4968623;28;20063;-66
2023/03/27 07:30:06;;;;;;;21.33;15.38;;;;;;;6.57;92.47;148956.56;4972414;28;20034;-66
2023/03/27 07:32:33;;;;;;;20.63;15.27;;;;;;;6.86;92.03;149028.16;5002231;28;20050;-66
2023/03/27 07:34:59;;;;;;;24.70;16.10;;;;;;;6.78;91.55;149007.69;5002824;28;20045;-67
2023/03/27 07:37:26;;;;;;;19.10;14.32;;;;;;;6.87;90.75;149029.47;4960595;28;20037;-67
2023/03/27 07:39:51;;;;;;;20.00;14.38;;;;;;;6.88;90.78;149031.97;4994794;28;20185;-67
2023/03/27 07:42:18;;;;;;;21.20;13.65;;;;;;;6.97;90.23;149053.72;4985057;28;20054;-67
2023/03/27 07:44:43;;;;;;;17.58;13.60;;;;;;;6.67;90.53;148980.84;4966777;28;20034;-67
2023/03/27 07:47:09;;;;;;;18.98;14.32;;;;;;;6.93;90.80;149044.78;4981160;28;20030;-66
2023/03/27 07:49:35;;;;;;;21.30;14.68;;;;;;;6.97;90.40;149055.03;5000359;28;20030;-67
2023/03/27 07:52:01;;;;;;;20.60;14.57;;;;;;;6.86;89.81;149026.88;5003077;28;20267;-66
2023/03/27 07:54:28;;;;;;;19.05;13.43;;;;;;;7.01;90.77;149065.25;5003530;28;20137;-67
2023/03/27 07:56:54;;;;;;;17.77;13.00;;;;;;;7.09;90.27;149085.69;4999831;28;20031;-66
2023/03/27 07:59:20;;;;;;;17.17;12.70;;;;;;;7.02;89.49;149067.78;4987766;28;20030;-66
2023/03/27 08:01:49;;;;;;;19.63;13.70;;;;;;;7.11;89.49;149088.25;4985202;28;20204;-65
2023/03/27 08:04:18;;;;;;;19.48;12.88;;;;;;;7.16;89.30;149101.06;4984168;28;20038;-66
2023/03/27 08:06:44;;;;;;;19.25;13.18;;;;;;;7.19;89.90;149108.72;4981344;28;20042;-67
2023/03/27 08:09:10;;;;;;;18.17;12.75;;;;;;;7.29;89.19;149133.03;4979201;28;20037;-66
2023/03/27 08:11:40;;;;;;;17.70;13.50;;;;;;;7.12;88.92;149092.09;4967984;28;20090;-66
2023/03/27 08:14:08;;;;;;;20.77;12.90;;;;;;;6.90;88.77;149038.38;4965389;28;20035;-66
2023/03/27 08:16:35;;;;;;;18.88;14.02;;;;;;;6.77;89.85;149005.16;4972922;28;20034;-66
2023/03/27 08:19:02;;;;;;;18.33;14.07;;;;;;;6.88;89.74;149031.97;4975309;28;20031;-66
2023/03/27 08:21:30;;;;;;;18.17;13.10;;;;;;;6.97;89.08;149055.03;4971309;28;20047;-66
2023/03/27 08:23:57;;;;;;;19.20;13.23;;;;;;;6.99;89.51;149060.13;4971765;28;20074;-66
2023/03/27 08:26:25;;;;;;;18.45;13.05;;;;;;;6.94;88.83;149047.34;4978839;28;20369;-67
2023/03/27 08:28:52;;;;;;;20.90;13.20;;;;;;;7.08;89.00;149081.84;4965542;28;20035;-66
2023/03/27 08:31:19;;;;;;;18.95;13.48;;;;;;;7.11;89.51;149088.25;4985864;28;20046;-66
2023/03/27 08:33:45;;;;;;;23.08;13.55;;;;;;;7.25;89.07;149124.06;4999265;28;20069;-66
2023/03/27 08:36:13;;;;;;;18.27;13.75;;;;;;;7.18;88.05;149106.16;4985011;28;20523;-66
2023/03/27 08:38:41;;;;;;;18.65;14.25;;;;;;;7.28;88.62;149131.72;4965489;28;20275;-66
2023/03/27 08:41:23;;;;;;;21.00;13.10;;;;;;;7.41;88.55;149165.00;4971115;28;20034;-66
2023/03/27 08:43:49;;;;;;;21.27;14.57;;;;;;;7.41;88.23;149165.00;4984267;28;20030;-66
2023/03/27 08:46:14;;;;;;;19.08;13.68;;;;;;;7.33;87.07;149143.28;4978251;28;20043;-66
2023/03/27 08:48:48;;;;;;;18.65;13.38;;;;;;;7.19;88.07;149110.00;4967916;28;20063;-65
2023/03/27 08:51:22;;;;;;;20.05;13.63;;;;;;;6.83;88.26;149019.22;4985277;28;20035;-64
2023/03/27 08:54:21;;;;;;;19.52;12.98;;;;;;;7.35;87.98;149148.38;4965553;28;20023;-66
2023/03/27 08:56:47;;;;;;;18.02;12.35;;;;;;;7.36;87.41;149150.94;4980945;28;20046;-66
2023/03/27 08:59:16;;;;;;;17.50;13.38;;;;;;;7.37;87.08;149153.50;4980531;28;20053;-65
2023/03/27 09:02:09;;;;;;;15.98;12.00;;;;;;;7.81;87.48;149263.53;4974747;28;20030;-65
2023/03/27 09:04:40;;;;;;;17.88;12.50;;;;;;;7.54;85.28;149195.69;4974780;28;20030;-65
2023/03/27 09:07:16;;;;;;;18.15;12.15;;;;;;;7.36;86.29;149152.19;4964893;28;20062;-66
2023/03/27 09:09:54;;;;;;;17.67;12.27;;;;;;;7.31;86.68;149139.44;4967207;28;20101;-66
2023/03/27 09:12:57;;;;;;;15.30;12.10;;;;;;;7.53;84.80;149193.16;4983020;28;20062;-66
2023/03/27 09:15:31;;;;;;;16.73;11.90;;;;;;;7.56;84.90;149202.09;4964857;28;20043;-66
2023/03/27 09:18:12;;;;;;;18.48;12.50;;;;;;;7.71;85.91;149239.22;4965172;28;20042;-67
2023/03/27 09:20:44;;;;;;;16.33;12.07;;;;;;;7.80;84.99;149259.72;4982381;28;20235;-66
2023/03/27 09:23:19;;;;;;;15.05;11.45;;;;;;;8.17;83.90;149353.13;4970413;28;20031;-66
2023/03/27 09:25:49;;;;;;;14.40;12.85;;;;;;;8.55;83.16;149446.59;4964296;28;20034;-67
2023/03/27 09:28:17;;;;;;;13.52;10.55;;;;;;;8.75;80.14;149497.84;4970828;28;20098;-66
2023/03/27 09:30:43;;;;;;;13.15;10.98;;;;;;;8.96;79.76;149550.38;4985106;28;20098;-67
2023/03/27 09:33:10;;;;;;;13.00;10.70;;;;;;;9.06;78.36;149573.41;5003067;28;20034;-67
2023/03/27 09:35:37;;;;;;;12.25;10.95;;;;;;;9.02;78.56;149563.16;4983894;28;20336;-66
2023/03/27 09:38:29;;;;;;;15.35;11.38;;;;;;;9.11;78.50;149586.22;4970835;28;20035;-66
2023/03/27 09:41:03;;;;;;;12.32;9.70;;;;;;;9.05;77.73;149572.13;4975197;28;20195;-66
2023/03/27 09:43:43;;;;;;;13.98;11.32;;;;;;;9.09;77.14;149581.06;4975414;28;20042;-67
2023/03/27 09:46:12;;;;;;;13.70;10.68;;;;;;;8.70;76.58;149485.03;4969607;28;20323;-67
2023/03/27 09:48:49;;;;;;;12.13;10.07;;;;;;;8.96;77.69;149550.38;4982318;28;20045;-68
2023/03/27 09:51:46;;;;;;;14.45;10.05;;;;;;;8.86;77.43;149523.44;4964297;28;20106;-66
2023/03/27 09:54:15;;;;;;;10.00;8.95;;;;;;;9.02;77.06;149564.47;4964444;28;20034;-66
2023/03/27 09:56:50;;;;;;;13.05;9.85;;;;;;;9.04;76.76;149568.31;4981726;28;20031;-66
2023/03/27 09:59:36;;;;;;;13.32;10.20;;;;;;;8.77;76.64;149501.69;4983547;28;20022;-66
2023/03/27 10:02:21;;;;;;;11.10;9.65;;;;;;;8.70;77.61;149483.75;4971176;28;20039;-67
2023/03/27 10:05:15;;;;;;;12.27;8.95;;;;;;;9.00;77.99;149558.03;4974211;28;20038;-66
2023/03/27 10:07:41;;;;;;;11.13;8.43;;;;;;;9.13;77.35;149592.59;4973394;28;20034;-66
2023/03/27 10:10:19;;;;;;;10.82;8.45;;;;;;;9.22;77.33;149614.41;4968558;28;20185;-65
2023/03/27 10:12:52;;;;;;;8.57;7.55;;;;;;;9.12;76.65;149588.75;4980805;28;20094;-66
2023/03/27 10:15:35;;;;;;;10.48;7.50;;;;;;;9.38;75.73;149654.13;4963782;29;20216;-66
2023/03/27 10:18:32;;;;;;;8.60;7.20;;;;;;;9.20;73.76;149608.00;4992368;28;20032;-67
2023/03/27 10:21:05;;;;;;;10.38;7.80;;;;;;;9.48;73.43;149679.75;4995135;28;20030;-66
2023/03/27 10:23:48;;;;;;;8.02;6.95;;;;;;;9.78;75.15;149754.06;4974005;28;20027;-66
2023/03/27 10:26:24;;;;;;;9.65;8.18;;;;;;;9.87;73.92;149775.84;4990854;28;20026;-66
2023/03/27 10:28:50;;;;;;;8.57;6.97;;;;;;;9.80;73.05;149757.91;4985228;28;20037;-67
2023/03/27 10:31:31;;;;;;;8.38;7.10;;;;;;;9.81;72.84;149761.75;4988908;28;20038;-66
2023/03/27 10:34:02;;;;;;;;;;;;;;;10.08;73.49;149827.16;4995661;28;20055;-67
2023/03/27 10:36:36;;;;;;;9.43;7.57;;;;;;;10.07;73.82;149825.84;4983121;28;19914;-67
2023/03/27 10:39:08;;;;;;;11.10;7.32;;;;;;;9.99;71.04;149806.63;4963714;28;20231;-67
2023/03/27 10:41:35;;;;;;;10.27;8.10;;;;;;;10.14;73.08;149842.50;4976098;28;20030;-68
2023/03/27 10:44:11;;;;;;;9.52;7.30;;;;;;;10.43;72.57;149914.34;4972016;28;20051;-66
2023/03/27 10:46:38;;;;;;;12.27;7.47;;;;;;;9.97;72.28;149801.47;4969008;28;20031;-67
2023/03/27 10:49:18;;;;;;;8.77;7.43;;;;;;;9.93;71.74;149789.94;4976373;28;20038;-66
2023/03/27 10:51:51;;;;;;;12.48;7.68;;;;;;;10.25;72.39;149869.47;4972585;28;20018;-67
2023/03/27 10:54:32;;;;;;;9.98;7.00;;;;;;;10.45;70.00;149920.78;4967797;28;20476;-66
2023/03/27 10:57:20;;;;;;;13.23;7.65;;;;;;;10.57;71.88;149950.25;4964993;28;20034;-66
2023/03/27 11:00:19;;;;;;;7.35;6.60;;;;;;;10.64;70.57;149966.94;4974916;28;20034;-65
2023/03/27 11:02:52;;;;;;;7.35;6.55;;;;;;;10.51;69.42;149936.16;4973491;28;20038;-66
2023/03/27 11:05:27;;;;;;;10.88;7.47;;;;;;;10.59;69.28;149955.41;4990583;28;20058;-67
2023/03/27 11:08:04;;;;;;;8.02;6.30;;;;;;;10.64;68.99;149966.94;4996285;28;20027;-66
2023/03/27 11:10:38;;;;;;;9.60;7.55;;;;;;;10.83;69.05;150015.69;4997069;28;20444;-67
2023/03/27 11:13:26;;;;;;;7.82;7.03;;;;;;;10.81;67.44;150009.28;4967057;28;20061;-66
2023/03/27 11:16:18;;;;;;;7.93;6.57;;;;;;;10.93;68.14;150040.06;4975091;28;20054;-67
2023/03/27 11:19:07;;;;;;;13.93;7.60;;;;;;;10.90;68.77;150031.06;4979589;28;20037;-66
2023/03/27 11:21:48;;;;;;;8.30;7.18;;;;;;;10.80;69.23;150008.00;4962648;28;20042;-67
2023/03/27 11:24:34;;;;;;;6.63;5.85;;;;;;;10.63;68.30;149964.38;4963630;28;20493;-67
2023/03/27 11:27:22;;;;;;;7.32;5.70;;;;;;;10.54;67.72;149942.56;4982011;28;20038;-67
2023/03/27 11:30:15;;;;;;;6.75;5.38;;;;;;;10.58;68.45;149952.84;4966745;28;20143;-66
2023/03/27 11:33:02;;;;;;;9.63;5.95;;;;;;;10.27;68.74;149874.56;4974703;28;20043;-67
2023/03/27 11:35:35;;;;;;;8.65;5.95;;;;;;;10.23;69.57;149864.31;4978274;28;20043;-66
2023/03/27 11:38:17;;;;;;;8.75;5.47;;;;;;;10.00;68.72;149809.22;4977940;28;20030;-66
2023/03/27 11:40:47;;;;;;;7.22;5.68;;;;;;;10.10;69.59;149833.53;4978735;28;20046;-67